createdAt,value
2018-06-15T00:00:03.806Z,14.812
2018-06-15T00:01:03.517Z,14.75
2018-06-15T00:02:04.148Z,14.812
2018-06-15T00:03:03.736Z,14.812
2018-06-15T00:04:04.238Z,14.812
2018-06-15T00:05:03.995Z,14.875
2018-06-15T00:06:03.556Z,14.937
2018-06-15T00:07:04.257Z,15.062
2018-06-15T00:08:03.798Z,15.125
2018-06-15T00:09:03.624Z,15.125
2018-06-15T00:10:03.387Z,15.187
2018-06-15T00:11:03.841Z,15.187
2018-06-15T00:12:03.453Z,15.187
2018-06-15T00:13:03.922Z,15.187
2018-06-15T00:14:03.493Z,15.187
2018-06-15T00:15:04.247Z,15.187
2018-06-15T00:16:03.784Z,15.187
2018-06-15T00:17:03.539Z,15.25
2018-06-15T00:18:04.110Z,15.25
2018-06-15T00:20:04.265Z,15.25
2018-06-15T00:21:03.453Z,15.25
2018-06-15T00:22:04.326Z,15.312
2018-06-15T00:23:03.945Z,15.25
2018-06-15T00:24:03.697Z,15.25
2018-06-15T00:25:04.206Z,15.187
2018-06-15T00:26:03.984Z,15.187
2018-06-15T00:27:03.629Z,15.187
2018-06-15T00:28:04.407Z,15.125
2018-06-15T00:29:04.076Z,15.187
2018-06-15T00:30:03.623Z,15.125
2018-06-15T00:31:04.338Z,15.187
2018-06-15T00:32:04.478Z,15.125
2018-06-15T00:33:03.815Z,15.125
2018-06-15T00:34:04.163Z,15.062
2018-06-15T00:35:04.256Z,15.125
2018-06-15T00:36:03.832Z,15.062
2018-06-15T00:37:03.532Z,15.062
2018-06-15T00:38:04.029Z,15.062
2018-06-15T00:39:04.422Z,15.062
2018-06-15T00:40:04.078Z,15.062
2018-06-15T00:41:03.705Z,15.062
2018-06-15T00:42:05.657Z,15.062
2018-06-15T00:43:04.056Z,15.062
2018-06-15T00:44:03.315Z,15.062
2018-06-15T00:45:03.979Z,15.062
2018-06-15T00:46:03.673Z,15
2018-06-15T00:47:04.263Z,15
2018-06-15T00:48:04.074Z,15
2018-06-15T00:49:03.653Z,15.062
2018-06-15T00:50:03.902Z,15
2018-06-15T00:51:03.829Z,15
2018-06-15T00:52:03.654Z,15
2018-06-15T00:53:03.510Z,14.937
2018-06-15T00:54:04.084Z,15
2018-06-15T00:55:03.624Z,15.062
2018-06-15T00:56:03.611Z,15.062
2018-06-15T00:57:04.183Z,15.062
2018-06-15T00:58:03.511Z,15
2018-06-15T00:59:04.057Z,15
2018-06-15T01:00:04.348Z,15
2018-06-15T01:01:04.101Z,15.062
2018-06-15T01:02:03.874Z,15.062
2018-06-15T01:03:03.458Z,15.062
2018-06-15T01:04:04.178Z,15.125
2018-06-15T01:05:04.372Z,15.125
2018-06-15T01:06:03.736Z,15.125
2018-06-15T01:07:03.396Z,15.125
2018-06-15T01:08:04.098Z,15.125
2018-06-15T01:09:04.936Z,15.125
2018-06-15T01:10:04.240Z,15.125
2018-06-15T01:11:03.951Z,15.125
2018-06-15T01:12:03.464Z,15.125
2018-06-15T01:13:03.736Z,15.125
2018-06-15T01:14:04.128Z,15.125
2018-06-15T01:15:03.869Z,15.125
2018-06-15T01:16:04.078Z,15.062
2018-06-15T01:17:03.861Z,15.062
2018-06-15T01:18:04.265Z,15.062
2018-06-15T01:19:03.957Z,15
2018-06-15T01:20:03.626Z,15
2018-06-15T01:21:04.088Z,15.062
2018-06-15T01:22:03.778Z,15.062
2018-06-15T01:23:03.379Z,15.062
2018-06-15T01:24:03.882Z,15.062
2018-06-15T01:25:03.462Z,15.062
2018-06-15T01:26:04.118Z,15
2018-06-15T01:27:03.546Z,15
2018-06-15T01:28:04.356Z,14.937
2018-06-15T01:29:03.756Z,14.937
2018-06-15T01:30:04.307Z,14.937
2018-06-15T01:31:03.680Z,14.875
2018-06-15T01:32:04.340Z,14.875
2018-06-15T01:33:03.525Z,14.875
2018-06-15T01:34:03.857Z,14.875
2018-06-15T01:35:03.521Z,14.875
2018-06-15T01:36:04.128Z,14.812
2018-06-15T01:37:03.847Z,14.812
2018-06-15T01:38:04.311Z,14.75
2018-06-15T01:39:04.065Z,14.75
2018-06-15T01:40:03.575Z,14.75
2018-06-15T01:41:04.152Z,14.687
2018-06-15T01:42:03.710Z,14.687
2018-06-15T01:43:04.226Z,14.687
2018-06-15T01:44:03.940Z,14.687
2018-06-15T01:45:03.516Z,14.625
2018-06-15T01:46:03.899Z,14.562
2018-06-15T01:47:03.505Z,14.562
2018-06-15T01:48:04.049Z,14.5
2018-06-15T01:49:03.446Z,14.5
2018-06-15T01:50:04.085Z,14.5
2018-06-15T01:51:03.946Z,14.437
2018-06-15T01:52:03.871Z,14.437
2018-06-15T01:53:03.459Z,14.5
2018-06-15T01:54:04.021Z,14.5
2018-06-15T01:55:03.326Z,14.5
2018-06-15T01:56:04.094Z,14.562
2018-06-15T01:57:03.637Z,14.562
2018-06-15T01:58:03.463Z,14.562
2018-06-15T01:59:03.894Z,14.625
2018-06-15T02:00:03.678Z,14.625
2018-06-15T02:01:04.310Z,14.625
2018-06-15T02:02:03.751Z,14.625
2018-06-15T02:03:04.163Z,14.625
2018-06-15T02:04:03.676Z,14.625
2018-06-15T02:05:03.921Z,14.625
2018-06-15T02:06:03.424Z,14.625
2018-06-15T02:07:04.091Z,14.687
2018-06-15T02:08:03.667Z,14.687
2018-06-15T02:09:04.682Z,14.687
2018-06-15T02:10:03.892Z,14.687
2018-06-15T02:11:03.549Z,14.687
2018-06-15T02:12:04.019Z,14.687
2018-06-15T02:13:03.370Z,14.687
2018-06-15T02:14:04.154Z,14.687
2018-06-15T02:15:03.950Z,14.687
2018-06-15T02:16:03.413Z,14.687
2018-06-15T02:17:04.415Z,14.75
2018-06-15T02:18:03.986Z,14.75
2018-06-15T02:19:03.645Z,14.75
2018-06-15T02:20:04.376Z,14.75
2018-06-15T02:21:03.840Z,14.812
2018-06-15T02:22:03.856Z,14.812
2018-06-15T02:23:03.522Z,14.812
2018-06-15T02:24:04.095Z,14.875
2018-06-15T02:25:03.664Z,14.875
2018-06-15T02:26:03.418Z,14.875
2018-06-15T02:27:04.088Z,14.875
2018-06-15T02:28:04.657Z,14.875
2018-06-15T02:29:03.978Z,14.875
2018-06-15T02:30:03.733Z,14.875
2018-06-15T02:31:03.890Z,14.875
2018-06-15T02:32:04.227Z,14.875
2018-06-15T02:33:03.627Z,14.875
2018-06-15T02:34:03.355Z,14.875
2018-06-15T02:35:04.221Z,14.875
2018-06-15T02:36:03.826Z,14.875
2018-06-15T02:37:03.995Z,14.875
2018-06-15T02:38:03.390Z,14.875
2018-06-15T02:39:04.235Z,14.937
2018-06-15T02:40:03.797Z,14.937
2018-06-15T02:42:03.518Z,14.937
2018-06-15T02:43:04.356Z,14.937
2018-06-15T02:44:04.060Z,14.875
2018-06-15T02:45:03.535Z,14.937
2018-06-15T02:46:04.001Z,14.937
2018-06-15T02:47:03.536Z,14.937
2018-06-15T02:48:04.040Z,14.937
2018-06-15T02:49:04.417Z,14.937
2018-06-15T02:50:03.994Z,14.937
2018-06-15T02:51:03.558Z,14.937
2018-06-15T02:52:04.248Z,14.937
2018-06-15T02:53:03.370Z,15
2018-06-15T02:54:03.947Z,15
2018-06-15T02:55:03.535Z,15
2018-06-15T02:56:04.172Z,15
2018-06-15T02:57:03.700Z,15
2018-06-15T02:58:04.212Z,15
2018-06-15T02:59:03.845Z,15
2018-06-15T03:00:04.270Z,15.062
2018-06-15T03:01:03.516Z,15.062
2018-06-15T03:02:04.333Z,15.062
2018-06-15T03:03:03.881Z,15
2018-06-15T03:04:03.778Z,15
2018-06-15T03:05:03.792Z,15
2018-06-15T03:06:03.394Z,15
2018-06-15T03:07:03.931Z,15
2018-06-15T03:08:03.393Z,15
2018-06-15T03:09:04.296Z,15
2018-06-15T03:10:03.695Z,15
2018-06-15T03:11:04.183Z,15
2018-06-15T03:12:03.729Z,15
2018-06-15T03:13:04.300Z,15.062
2018-06-15T03:14:03.858Z,15.062
2018-06-15T03:15:03.599Z,15
2018-06-15T03:16:03.622Z,15
2018-06-15T03:17:04.254Z,15
2018-06-15T03:18:03.623Z,15
2018-06-15T03:19:04.008Z,15
2018-06-15T03:20:03.486Z,15
2018-06-15T03:21:04.123Z,15
2018-06-15T03:22:03.469Z,15
2018-06-15T03:23:03.280Z,15
2018-06-15T03:24:04.081Z,15
2018-06-15T03:25:04.380Z,15
2018-06-15T03:26:04.153Z,15
2018-06-15T03:27:03.728Z,15
2018-06-15T03:28:03.535Z,15
2018-06-15T03:29:03.803Z,15
2018-06-15T03:30:03.497Z,15.062
2018-06-15T03:31:04.051Z,15.062
2018-06-15T03:32:03.757Z,15.062
2018-06-15T03:33:03.320Z,15
2018-06-15T03:34:03.865Z,15
2018-06-15T03:35:03.408Z,15
2018-06-15T03:36:04.044Z,15
2018-06-15T03:37:04.331Z,15
2018-06-15T03:38:03.966Z,15
2018-06-15T03:39:04.388Z,14.937
2018-06-15T03:40:03.926Z,14.937
2018-06-15T03:41:03.323Z,14.937
2018-06-15T03:42:03.899Z,14.937
2018-06-15T03:43:03.839Z,14.937
2018-06-15T03:44:04.147Z,14.937
2018-06-15T03:45:03.639Z,14.937
2018-06-15T03:46:04.167Z,15
2018-06-15T03:47:03.617Z,15
2018-06-15T03:48:04.174Z,15
2018-06-15T03:49:03.860Z,15
2018-06-15T03:50:03.440Z,15
2018-06-15T03:51:03.909Z,15.062
2018-06-15T03:52:03.577Z,15.062
2018-06-15T03:53:04.250Z,15.062
2018-06-15T03:54:03.787Z,15.062
2018-06-15T03:55:03.348Z,15.062
2018-06-15T03:56:03.885Z,15.062
2018-06-15T03:57:03.575Z,15.125
2018-06-15T03:58:04.308Z,15.125
2018-06-15T03:59:03.924Z,15.125
2018-06-15T04:00:03.639Z,15.125
2018-06-15T04:01:03.540Z,15.187
2018-06-15T04:02:04.008Z,15.187
2018-06-15T04:03:04.154Z,15.187
2018-06-15T04:04:04.550Z,15.187
2018-06-15T04:05:03.887Z,15.187
2018-06-15T04:06:04.339Z,15.25
2018-06-15T04:07:04.376Z,15.25
2018-06-15T04:08:04.094Z,15.25
2018-06-15T04:09:03.877Z,15.312
2018-06-15T04:10:04.210Z,15.312
2018-06-15T04:11:03.806Z,15.375
2018-06-15T04:12:04.023Z,15.375
2018-06-15T04:13:04.030Z,15.437
2018-06-15T04:14:03.466Z,15.5
2018-06-15T04:15:04.092Z,15.5
2018-06-15T04:16:03.580Z,15.562
2018-06-15T04:17:03.871Z,15.562
2018-06-15T04:18:03.503Z,15.625
2018-06-15T04:19:04.090Z,15.687
2018-06-15T04:20:03.618Z,15.687
2018-06-15T04:21:04.210Z,15.75
2018-06-15T04:22:03.793Z,15.812
2018-06-15T04:23:03.908Z,15.812
2018-06-15T04:24:03.520Z,15.812
2018-06-15T04:25:04.699Z,15.812
2018-06-15T04:26:03.850Z,15.812
2018-06-15T04:27:03.607Z,15.875
2018-06-15T04:28:04.097Z,15.875
2018-06-15T04:29:04.254Z,15.875
2018-06-15T04:30:03.796Z,15.937
2018-06-15T04:31:03.460Z,15.937
2018-06-15T04:32:03.953Z,15.937
2018-06-15T04:33:03.818Z,16
2018-06-15T04:34:03.379Z,16.062
2018-06-15T04:35:03.674Z,16.062
2018-06-15T04:36:03.929Z,16.125
2018-06-15T04:37:03.485Z,16.187
2018-06-15T04:38:04.330Z,16.187
2018-06-15T04:39:04.193Z,16.312
2018-06-15T04:40:03.821Z,16.312
2018-06-15T04:41:03.542Z,16.375
2018-06-15T04:42:03.801Z,16.437
2018-06-15T04:43:03.598Z,16.437
2018-06-15T04:44:04.212Z,16.5
2018-06-15T04:45:03.661Z,16.5
2018-06-15T04:46:04.057Z,16.5
2018-06-15T04:47:03.675Z,16.562
2018-06-15T04:48:04.245Z,16.562
2018-06-15T04:49:03.803Z,16.625
2018-06-15T04:50:04.019Z,16.687
2018-06-15T04:51:04.133Z,16.75
2018-06-15T04:52:03.776Z,16.75
2018-06-15T04:53:03.452Z,16.812
2018-06-15T04:54:03.906Z,16.875
2018-06-15T04:55:03.607Z,16.937
2018-06-15T04:56:03.998Z,16.937
2018-06-15T04:57:03.722Z,17
2018-06-15T04:58:04.236Z,17.062
2018-06-15T04:59:03.674Z,17.125
2018-06-15T05:00:04.317Z,17.187
2018-06-15T05:01:03.887Z,17.25
2018-06-15T05:02:03.384Z,17.25
2018-06-15T05:03:03.960Z,17.312
2018-06-15T05:04:03.694Z,17.312
2018-06-15T05:05:04.274Z,17.375
2018-06-15T05:06:03.709Z,17.375
2018-06-15T05:07:04.161Z,17.375
2018-06-15T05:08:03.874Z,17.437
2018-06-15T05:09:03.712Z,17.5
2018-06-15T05:10:04.207Z,17.562
2018-06-15T05:11:03.593Z,17.562
2018-06-15T05:12:04.335Z,17.562
2018-06-15T05:13:04.049Z,17.5
2018-06-15T05:14:03.728Z,17.437
2018-06-15T05:15:05.604Z,17.5
2018-06-15T05:16:03.878Z,17.437
2018-06-15T05:17:04.107Z,17.5
2018-06-15T05:18:03.677Z,17.5
2018-06-15T05:19:04.231Z,17.562
2018-06-15T05:20:03.693Z,17.562
2018-06-15T05:21:03.731Z,17.625
2018-06-15T05:22:03.602Z,17.687
2018-06-15T05:23:04.254Z,17.75
2018-06-15T05:24:03.937Z,17.812
2018-06-15T05:25:03.663Z,17.812
2018-06-15T05:26:04.316Z,17.812
2018-06-15T05:27:03.928Z,17.875
2018-06-15T05:28:03.343Z,18
2018-06-15T05:29:03.975Z,18.062
2018-06-15T05:30:03.590Z,18.125
2018-06-15T05:31:04.336Z,18.187
2018-06-15T05:32:03.904Z,18.187
2018-06-15T05:33:04.129Z,18.312
2018-06-15T05:34:03.656Z,18.375
2018-06-15T05:35:04.198Z,18.437
2018-06-15T05:36:03.479Z,18.5
2018-06-15T05:37:04.948Z,18.5
2018-06-15T05:38:04.301Z,18.562
2018-06-15T05:39:04.015Z,18.625
2018-06-15T05:40:04.092Z,18.625
2018-06-15T05:41:04.003Z,18.625
2018-06-15T05:42:03.508Z,18.562
2018-06-15T05:43:04.008Z,18.562
2018-06-15T05:44:04.397Z,18.562
2018-06-15T05:45:04.215Z,18.562
2018-06-15T05:46:03.840Z,18.625
2018-06-15T05:47:03.424Z,18.687
2018-06-15T05:48:03.959Z,18.75
2018-06-15T05:49:03.542Z,18.812
2018-06-15T05:50:04.262Z,18.812
2018-06-15T05:51:03.518Z,18.875
2018-06-15T05:52:04.029Z,18.937
2018-06-15T05:53:03.657Z,18.937
2018-06-15T05:54:04.253Z,19
2018-06-15T05:55:03.705Z,18.937
2018-06-15T05:56:04.343Z,18.875
2018-06-15T05:57:03.540Z,18.937
2018-06-15T05:58:04.198Z,18.937
2018-06-15T05:59:03.949Z,18.875
2018-06-15T06:00:03.643Z,18.812
2018-06-15T06:01:03.456Z,18.812
2018-06-15T06:02:04.152Z,18.812
2018-06-15T06:03:03.797Z,18.812
2018-06-15T06:04:03.674Z,18.812
2018-06-15T06:05:04.177Z,18.812
2018-06-15T06:06:04.134Z,18.75
2018-06-15T06:07:03.876Z,18.75
2018-06-15T06:08:03.364Z,18.75
2018-06-15T06:09:04.950Z,18.812
2018-06-15T06:10:04.209Z,18.812
2018-06-15T06:11:03.790Z,18.75
2018-06-15T06:12:03.395Z,18.812
2018-06-15T06:13:04.169Z,18.812
2018-06-15T06:14:03.542Z,18.812
2018-06-15T06:15:04.283Z,18.875
2018-06-15T06:16:03.935Z,18.875
2018-06-15T06:17:03.748Z,18.875
2018-06-15T06:18:03.526Z,18.812
2018-06-15T06:19:04.047Z,18.812
2018-06-15T06:20:03.873Z,18.75
2018-06-15T06:21:03.568Z,18.687
2018-06-15T06:22:04.245Z,18.625
2018-06-15T06:23:03.774Z,18.562
2018-06-15T06:24:04.241Z,18.625
2018-06-15T06:25:03.843Z,18.625
2018-06-15T06:26:03.478Z,18.687
2018-06-15T06:27:04.080Z,18.687
2018-06-15T06:28:03.309Z,18.687
2018-06-15T06:29:03.997Z,18.625
2018-06-15T06:30:03.780Z,18.625
2018-06-15T06:31:04.237Z,18.562
2018-06-15T06:34:03.503Z,18.562
2018-06-15T06:35:04.314Z,18.625
2018-06-15T06:36:04.153Z,18.75
2018-06-15T06:37:03.763Z,18.687
2018-06-15T06:38:04.672Z,18.687
2018-06-15T06:42:09.178Z,19.25
2018-06-15T06:43:03.412Z,19.25
2018-06-15T06:44:03.675Z,19.25
2018-06-15T06:45:03.568Z,19.25
2018-06-15T06:46:04.089Z,19.187
2018-06-15T06:47:03.568Z,19.062
2018-06-15T06:48:04.362Z,19.125
2018-06-15T06:49:03.983Z,19.062
2018-06-15T06:50:03.491Z,19.125
2018-06-15T06:51:04.074Z,19.25
2018-06-15T06:52:03.628Z,19.312
2018-06-15T06:53:04.150Z,19.437
2018-06-15T06:54:03.432Z,19.562
2018-06-15T06:55:03.883Z,19.562
2018-06-15T06:56:03.431Z,19.5
2018-06-15T06:57:03.466Z,19.5
2018-06-15T06:58:04.136Z,19.562
2018-06-15T06:59:04.323Z,19.75
2018-06-15T07:00:03.809Z,19.875
2018-06-15T07:01:04.237Z,19.937
2018-06-15T07:02:03.765Z,20
2018-06-15T07:03:04.245Z,20.125
2018-06-15T07:04:03.908Z,20.25
2018-06-15T07:05:03.553Z,20.25
2018-06-15T07:06:03.984Z,20.25
2018-06-15T07:07:03.657Z,20.187
2018-06-15T07:08:04.268Z,20.187
2018-06-15T07:09:04.038Z,20.25
2018-06-15T07:10:04.367Z,20.25
2018-06-15T07:11:04.000Z,20.25
2018-06-15T07:12:03.858Z,20.375
2018-06-15T07:13:03.617Z,20.5
2018-06-15T07:14:04.238Z,20.5
2018-06-15T07:15:03.706Z,20.437
2018-06-15T07:16:03.834Z,20.437
2018-06-15T07:17:03.457Z,20.5
2018-06-15T07:18:03.845Z,20.5
2018-06-15T07:19:03.422Z,20.5
2018-06-15T07:20:03.972Z,20.625
2018-06-15T07:21:04.038Z,20.75
2018-06-15T07:22:03.630Z,20.875
2018-06-15T07:23:04.292Z,21
2018-06-15T07:24:03.874Z,21.187
2018-06-15T07:25:03.519Z,21.312
2018-06-15T07:26:04.232Z,21.437
2018-06-15T07:27:03.503Z,21.562
2018-06-15T07:28:04.038Z,21.562
2018-06-15T07:29:03.776Z,21.562
2018-06-15T07:30:04.347Z,21.687
2018-06-15T07:31:04.074Z,21.875
2018-06-15T07:32:03.503Z,21.875
2018-06-15T07:33:04.129Z,21.937
2018-06-15T07:34:03.347Z,22
2018-06-15T07:35:04.006Z,22.125
2018-06-15T07:36:04.746Z,22.25
2018-06-15T07:37:03.924Z,22.375
2018-06-15T07:38:03.973Z,22.375
2018-06-15T07:39:04.011Z,22.375
2018-06-15T07:40:03.576Z,22.375
2018-06-15T07:41:04.111Z,22.5
2018-06-15T07:42:03.790Z,22.375
2018-06-15T07:43:03.379Z,22.25
2018-06-15T07:44:03.915Z,22.125
2018-06-15T07:45:03.717Z,22.125
2018-06-15T07:46:03.458Z,22.125
2018-06-15T07:47:03.580Z,22.125
2018-06-15T07:48:04.264Z,22.25
2018-06-15T07:50:04.152Z,22.187
2018-06-15T07:51:03.891Z,22.312
2018-06-15T07:52:04.088Z,22.25
2018-06-15T07:53:03.668Z,22.062
2018-06-15T07:54:04.255Z,21.937
2018-06-15T07:55:03.888Z,21.875
2018-06-15T07:56:03.637Z,21.812
2018-06-15T07:57:04.404Z,21.687
2018-06-15T07:58:04.173Z,21.687
2018-06-15T07:59:03.928Z,21.562
2018-06-15T08:00:03.555Z,21.5
2018-06-15T08:01:04.224Z,21.5
2018-06-15T08:02:03.811Z,21.5
2018-06-15T08:03:03.406Z,21.562
2018-06-15T08:04:04.090Z,21.5
2018-06-15T08:05:03.816Z,21.562
2018-06-15T08:06:03.349Z,21.687
2018-06-15T08:07:03.785Z,21.75
2018-06-15T08:08:03.566Z,21.875
2018-06-15T08:09:04.221Z,21.875
2018-06-15T08:10:03.844Z,21.812
2018-06-15T08:11:04.103Z,21.812
2018-06-15T08:12:03.643Z,21.75
2018-06-15T08:13:03.361Z,21.687
2018-06-15T08:14:04.081Z,21.75
2018-06-15T08:16:04.104Z,21.75
2018-06-15T08:17:03.798Z,21.75
2018-06-15T08:18:03.388Z,21.812
2018-06-15T08:19:04.040Z,21.875
2018-06-15T08:20:03.451Z,21.812
2018-06-15T08:21:04.146Z,21.812
2018-06-15T08:22:03.708Z,21.812
2018-06-15T08:23:03.952Z,21.75
2018-06-15T08:24:03.391Z,21.75
2018-06-15T08:25:03.930Z,21.625
2018-06-15T08:26:04.106Z,21.687
2018-06-15T08:27:03.764Z,21.875
2018-06-15T08:28:04.172Z,22.125
2018-06-15T08:29:03.788Z,22.375
2018-06-15T08:30:03.483Z,22.375
2018-06-15T08:31:03.968Z,22.5
2018-06-15T08:32:03.412Z,22.625
2018-06-15T08:33:03.998Z,22.687
2018-06-15T08:34:03.585Z,22.812
2018-06-15T08:35:04.280Z,22.75
2018-06-15T08:36:03.370Z,22.812
2018-06-15T08:37:04.184Z,22.875
2018-06-15T08:38:03.559Z,22.937
2018-06-15T08:39:04.562Z,23
2018-06-15T08:41:03.641Z,23
2018-06-15T08:42:04.315Z,23.25
2018-06-15T08:43:03.852Z,23.375
2018-06-15T08:44:03.991Z,23.562
2018-06-15T08:45:03.472Z,23.687
2018-06-15T08:46:03.911Z,23.75
2018-06-15T08:47:03.386Z,23.687
2018-06-15T08:48:04.212Z,23.875
2018-06-15T08:49:03.800Z,23.75
2018-06-15T08:50:03.504Z,23.812
2018-06-15T08:51:04.121Z,24
2018-06-15T08:52:03.926Z,24.125
2018-06-15T08:53:03.745Z,24.187
2018-06-15T08:54:03.678Z,24.125
2018-06-15T08:55:03.411Z,24.062
2018-06-15T08:56:03.736Z,23.937
2018-06-15T08:57:03.480Z,24.062
2018-06-15T08:58:03.636Z,24.125
2018-06-15T08:59:04.354Z,24.125
2018-06-15T09:00:04.010Z,24.187
2018-06-15T09:01:03.645Z,24.187
2018-06-15T09:02:04.203Z,24.187
2018-06-15T09:03:03.953Z,24.375
2018-06-15T09:04:03.425Z,24.562
2018-06-15T09:05:04.150Z,24.5
2018-06-15T09:06:03.601Z,24.625
2018-06-15T09:07:04.196Z,24.687
2018-06-15T09:08:03.860Z,24.5
2018-06-15T09:09:04.620Z,24.5
2018-06-15T09:10:03.799Z,24.25
2018-06-15T09:11:03.433Z,24.312
2018-06-15T09:12:04.030Z,24.312
2018-06-15T09:13:03.651Z,24.25
2018-06-15T09:14:04.341Z,24.312
2018-06-15T09:15:03.906Z,24.187
2018-06-15T09:16:03.616Z,24.25
2018-06-15T09:17:04.109Z,24.25
2018-06-15T09:18:03.735Z,24.375
2018-06-15T09:19:03.422Z,24.5
2018-06-15T09:20:03.997Z,24.437
2018-06-15T09:21:03.491Z,24.562
2018-06-15T09:22:04.177Z,24.562
2018-06-15T09:23:03.540Z,24.5
2018-06-15T09:24:04.083Z,24.437
2018-06-15T09:25:03.663Z,24.625
2018-06-15T09:26:03.357Z,24.812
2018-06-15T09:27:03.928Z,24.75
2018-06-15T09:28:04.253Z,24.812
2018-06-15T09:29:03.574Z,24.75
2018-06-15T09:30:05.098Z,24.937
2018-06-15T09:31:03.458Z,25.062
2018-06-15T09:32:03.955Z,25.125
2018-06-15T09:33:03.629Z,25.25
2018-06-15T09:34:04.131Z,25.25
2018-06-15T09:35:03.570Z,25.187
2018-06-15T09:36:03.339Z,25.125
2018-06-15T09:37:04.033Z,25.25
2018-06-15T09:38:03.494Z,25.312
2018-06-15T09:39:04.143Z,25.5
2018-06-15T09:40:03.334Z,25.625
2018-06-15T09:41:03.769Z,25.75
2018-06-15T09:42:03.998Z,25.937
2018-06-15T09:43:03.679Z,26.062
2018-06-15T09:44:04.389Z,26.125
2018-06-15T09:45:04.058Z,26.25
2018-06-15T09:46:03.623Z,26.625
2018-06-15T09:47:04.137Z,26.812
2018-06-15T09:48:03.493Z,26.625
2018-06-15T09:49:04.099Z,26.75
2018-06-15T09:50:03.713Z,27.187
2018-06-15T09:51:04.134Z,27.312
2018-06-15T09:52:03.637Z,27.062
2018-06-15T09:53:04.125Z,27
2018-06-15T09:54:03.663Z,27.125
2018-06-15T09:55:04.173Z,27.25
2018-06-15T09:56:03.986Z,27.5
2018-06-15T09:57:03.497Z,27.937
2018-06-15T09:58:04.159Z,28.187
2018-06-15T09:59:04.601Z,28.375
2018-06-15T10:00:04.063Z,28.5
2018-06-15T10:01:03.601Z,28.562
2018-06-15T10:02:04.128Z,28.375
2018-06-15T10:03:04.674Z,28.312
2018-06-15T10:04:03.941Z,28.062
2018-06-15T10:05:03.538Z,28
2018-06-15T10:06:03.939Z,27.937
2018-06-15T10:07:03.809Z,27.687
2018-06-15T10:08:04.581Z,27.5
2018-06-15T10:09:04.242Z,27.437
2018-06-15T10:10:03.758Z,27.187
2018-06-15T10:11:03.727Z,27.187
2018-06-15T10:12:03.884Z,27.187
2018-06-15T10:13:03.529Z,27.125
2018-06-15T10:14:04.017Z,27.062
2018-06-15T10:15:03.554Z,27.187
2018-06-15T10:16:04.035Z,27.312
2018-06-15T10:17:05.039Z,27.562
2018-06-15T10:18:03.543Z,27.75
2018-06-15T10:19:04.198Z,28.187
2018-06-15T10:20:03.661Z,28.437
2018-06-15T10:21:04.313Z,28.5
2018-06-15T10:22:03.734Z,28.812
2018-06-15T10:23:03.437Z,28.625
2018-06-15T10:24:04.097Z,28.312
2018-06-15T10:25:03.601Z,28.375
2018-06-15T10:26:04.160Z,28.125
2018-06-15T10:27:03.484Z,28
2018-06-15T10:28:04.183Z,27.937
2018-06-15T10:29:03.587Z,27.5
2018-06-15T10:30:05.186Z,27.187
2018-06-15T10:31:03.398Z,27.125
2018-06-15T10:32:04.119Z,27.25
2018-06-15T10:33:03.713Z,27.187
2018-06-15T10:34:04.138Z,27.125
2018-06-15T10:35:04.606Z,27.25
2018-06-15T10:36:03.903Z,27.125
2018-06-15T10:37:03.463Z,27.062
2018-06-15T10:38:04.030Z,27.187
2018-06-15T10:39:03.754Z,27.125
2018-06-15T10:40:04.372Z,27.125
2018-06-15T10:41:03.556Z,27.062
2018-06-15T10:42:04.262Z,27.062
2018-06-15T10:43:03.989Z,26.937
2018-06-15T10:44:03.627Z,27.187
2018-06-15T10:45:04.031Z,27.5
2018-06-15T10:46:03.642Z,27.687
2018-06-15T10:47:04.202Z,27.937
2018-06-15T10:48:03.798Z,28
2018-06-15T10:49:04.202Z,28.375
2018-06-15T10:50:04.770Z,28.375
2018-06-15T10:51:04.232Z,28
2018-06-15T10:52:03.702Z,27.937
2018-06-15T10:53:03.798Z,28
2018-06-15T10:54:03.483Z,28.25
2018-06-15T10:55:04.267Z,28.375
2018-06-15T10:56:03.491Z,28.312
2018-06-15T10:57:04.082Z,28.25
2018-06-15T10:58:03.916Z,28.125
2018-06-15T10:59:03.391Z,28
2018-06-15T11:00:04.318Z,28.062
2018-06-15T11:01:03.850Z,27.875
2018-06-15T11:02:03.541Z,27.812
2018-06-15T11:03:04.099Z,27.812
2018-06-15T11:04:03.601Z,27.812
2018-06-15T11:05:04.129Z,27.812
2018-06-15T11:06:03.832Z,27.875
2018-06-15T11:07:04.175Z,27.937
2018-06-15T11:08:03.636Z,27.937
2018-06-15T11:09:04.103Z,27.812
2018-06-15T11:10:03.806Z,27.687
2018-06-15T11:11:03.387Z,27.437
2018-06-15T11:12:04.096Z,27.25
2018-06-15T11:13:03.737Z,27.125
2018-06-15T11:14:03.461Z,26.75
2018-06-15T11:15:04.091Z,26.625
2018-06-15T11:16:04.028Z,26.562
2018-06-15T11:17:03.733Z,26.5
2018-06-15T11:18:03.416Z,26.625
2018-06-15T11:19:03.943Z,26.562
2018-06-15T11:20:03.554Z,26.625
2018-06-15T11:21:04.134Z,26.687
2018-06-15T11:22:03.379Z,26.812
2018-06-15T11:23:03.799Z,26.875
2018-06-15T11:24:04.474Z,26.812
2018-06-15T11:25:03.788Z,26.687
2018-06-15T11:26:03.299Z,26.75
2018-06-15T11:27:03.955Z,27.062
2018-06-15T11:28:03.566Z,27.187
2018-06-15T11:29:04.126Z,27.187
2018-06-15T11:30:03.856Z,27.125
2018-06-15T11:31:03.429Z,27.187
2018-06-15T11:32:03.711Z,27.25
2018-06-15T11:33:04.238Z,27.562
2018-06-15T11:34:03.744Z,27.625
2018-06-15T11:35:04.500Z,27.875
2018-06-15T11:36:04.121Z,28
2018-06-15T11:37:03.734Z,28.125
2018-06-15T11:38:03.388Z,28.062
2018-06-15T11:39:04.154Z,28.187
2018-06-15T11:40:03.626Z,28.187
2018-06-15T11:41:04.267Z,28.062
2018-06-15T11:42:04.124Z,27.812
2018-06-15T11:43:03.724Z,27.812
2018-06-15T11:44:04.276Z,27.812
2018-06-15T11:45:03.929Z,27.875
2018-06-15T11:46:04.037Z,27.875
2018-06-15T11:47:03.797Z,27.937
2018-06-15T11:48:03.451Z,28.062
2018-06-15T11:49:04.046Z,28.062
2018-06-15T11:50:03.748Z,28
2018-06-15T11:51:04.337Z,28.125
2018-06-15T11:52:04.130Z,28.312
2018-06-15T11:53:03.319Z,28.5
2018-06-15T11:54:04.147Z,28.5
2018-06-15T11:55:03.686Z,28.625
2018-06-15T11:56:03.994Z,28.937
2018-06-15T11:57:03.573Z,29.062
2018-06-15T11:58:04.251Z,29.312
2018-06-15T11:59:03.678Z,29.687
2018-06-15T12:00:04.313Z,29.812
2018-06-15T12:01:03.894Z,29.562
2018-06-15T12:02:03.460Z,29
2018-06-15T12:03:03.833Z,28.937
2018-06-15T12:04:03.693Z,28.937
2018-06-15T12:05:03.894Z,28.812
2018-06-15T12:06:03.642Z,28.687
2018-06-15T12:07:04.206Z,28.437
2018-06-15T12:08:03.804Z,28.312
2018-06-15T12:09:04.405Z,28.187
2018-06-15T12:10:04.006Z,28.25
2018-06-15T12:11:03.510Z,28.187
2018-06-15T12:12:04.104Z,28
2018-06-15T12:13:03.895Z,27.875
2018-06-15T12:14:03.427Z,27.875
2018-06-15T12:15:04.150Z,27.875
2018-06-15T12:16:04.289Z,27.875
2018-06-15T12:17:04.390Z,28
2018-06-15T12:18:03.970Z,28.062
2018-06-15T12:19:03.474Z,28.187
2018-06-15T12:20:04.166Z,28.375
2018-06-15T12:21:03.420Z,28.562
2018-06-15T12:22:03.979Z,28.687
2018-06-15T12:23:03.660Z,29.062
2018-06-15T12:24:04.351Z,29.375
2018-06-15T12:25:03.845Z,29.687
2018-06-15T12:26:03.569Z,30
2018-06-15T12:27:03.850Z,30.187
2018-06-15T12:28:03.420Z,30.187
2018-06-15T12:29:03.564Z,30.25
2018-06-15T12:30:04.225Z,30.125
2018-06-15T12:31:03.610Z,29.812
2018-06-15T12:32:04.244Z,29.687
2018-06-15T12:33:03.776Z,29.625
2018-06-15T12:34:04.312Z,29.75
2018-06-15T12:35:03.809Z,29.937
2018-06-15T12:36:03.960Z,30.062
2018-06-15T12:37:03.317Z,30.312
2018-06-15T12:38:03.666Z,30.312
2018-06-15T12:39:04.546Z,30.375
2018-06-15T12:40:04.023Z,30.437
2018-06-15T12:41:03.783Z,30.687
2018-06-15T12:42:03.379Z,30.562
2018-06-15T12:43:03.805Z,30.5
2018-06-15T12:44:03.451Z,30.312
2018-06-15T12:45:03.994Z,30.437
2018-06-15T12:46:03.746Z,30.562
2018-06-15T12:47:03.964Z,30.625
2018-06-15T12:48:03.651Z,30.75
2018-06-15T12:49:04.243Z,30.875
2018-06-15T12:50:04.340Z,30.625
2018-06-15T12:51:03.763Z,30.562
2018-06-15T12:52:04.389Z,30.437
2018-06-15T12:53:03.639Z,30.375
2018-06-15T12:54:04.010Z,30.25